• Join FlightAware (Why Join?)
  • Login
  • US Flag GB Flag 
06:33 EDT


 

Airport Tracker/Info


-or-


 

Live Flight TrackerFlight Track Log ✈ N7192Y ✈ 27-Apr-2013 ✈ 2G9 - KDAY

Flight Track Log - Related Links

Times and Time Zones

All times are in EDT time to prevent confusion due to time zone crossing. See the N7192Y flight status page for this flight to view local times or setup timezone preferences in your user account.

Time Position Orientation Groundspeed Altitude Reporting Facility
EDT Latitude Longitude Course Direction KTS MPH feet Rate Location/Type
10:31 40.0697 -79.0692 271° West 134 154 4,400  Level Cleveland Center
10:32 40.0681 -79.1156 267° West 128 147 5,300 720 Climbing Cleveland Center
10:33 40.0689 -79.1642 271° West 127 146 6,000 360 Climbing Cleveland Center
10:34 40.0672 -79.2186 268° West 140 161 6,100  Climbing Cleveland Center
10:35 40.0658 -79.2783 268° West 160 184 6,100  Level Cleveland Center
10:36 40.0667 -79.3378 271° West 165 190 6,100  Level Cleveland Center
10:37 40.0631 -79.3978 266° West 167 192 6,100  Level Cleveland Center
10:38 40.0636 -79.4519 271° West 165 190 6,100  Level Cleveland Center
10:39 40.0642 -79.5142 271° West 165 190 6,100  Level Cleveland Center
10:40 40.0606 -79.5739 266° West 166 191 6,100  Level Cleveland Center
10:42 40.0486 -79.6404 257° West  Level FlightAware Approximate
10:49 40.0168 -80.0538 270° West  Level FlightAware Approximate
10:49 40.0558 -80.1167 270° West 163 188 6,100  Level Cleveland Center
10:50 40.0169 -80.1133 270° West  Level FlightAware Approximate
10:50 40.0561 -80.1736 270° West 163 188 6,100  Level Cleveland Center
10:51 40.0169 -80.1727 270° West  Level FlightAware Approximate
10:51 40.0542 -80.2333 268° West 163 188 6,100  Level Cleveland Center
10:52 40.0169 -80.2321 270° West  Level FlightAware Approximate
10:52 40.0522 -80.2875 267° West 163 188 6,100  Level Cleveland Center
10:53 40.0169 -80.2915 270° West  Level FlightAware Approximate
10:53 40.0522 -80.3444 270° West 163 188 6,100  Level Cleveland Center
10:54 40.0168 -80.3509 270° West  Level FlightAware Approximate
10:54 40.0525 -80.4042 270° West 163 188 6,100  Level Cleveland Center
10:55 40.0167 -80.4103 270° West  Level FlightAware Approximate
10:55 40.0506 -80.4636 268° West 152 175 6,100  Level Cleveland Center
10:56 40.0464 -80.5233 265° West 157 181 6,100  Level Cleveland Center
10:57 40.0464 -80.5803 270° West 157 181 6,100  Level Cleveland Center
10:58 40.0464 -80.6400 270° West 157 181 6,100  Level Cleveland Center
10:59 40.0442 -80.6997 267° West 162 186 6,100  Level Cleveland Center
11:00 40.0419 -80.7594 267° West 162 186 6,100  Level Cleveland Center
11:01 40.0397 -80.8189 267° West 162 186 6,100  Level Cleveland Center
11:02 40.0397 -80.8706 270° West 162 186 6,100  Level Cleveland Center
11:03 40.0375 -80.9328 267° West 162 186 6,100  Level Cleveland Center
11:04 40.0353 -80.9925 267° West 162 186 6,100  Level Cleveland Center
11:05 40.0328 -81.0494 267° West 162 186 6,100  Level Cleveland Center
11:06 40.0325 -81.1092 270° West 162 186 6,100  Level Cleveland Center
11:07 40.0303 -81.1661 267° West 162 186 6,100  Level Cleveland Center
11:09 40.0253 -81.2353 265° West 165 190 6,100  Level Indianapolis Center
11:10 40.0239 -81.2953 268° West 164 189 6,100  Level Indianapolis Center
11:11 40.0219 -81.3539 268° West 162 186 6,100  Level Indianapolis Center
11:12 40.0200 -81.4139 268° West 163 188 6,100  Level Indianapolis Center
11:13 40.0183 -81.4753 268° West 167 192 6,100  Level Indianapolis Center
11:14 40.0161 -81.5344 267° West 164 189 6,100  Level Indianapolis Center
11:15 40.0142 -81.5947 268° West 165 190 6,100  Level Indianapolis Center
11:16 40.0131 -81.6547 269° West 165 190 6,100  Level Indianapolis Center
11:17 40.0100 -81.7253 267° West 166 191 6,100  Level Indianapolis Center
11:18 40.0081 -81.7778 267° West 163 188 6,100  Level Indianapolis Center
11:19 40.0058 -81.8381 267° West 166 191 6,100  Level Indianapolis Center
11:20 40.0044 -81.8978 268° West 164 189 6,100  Level Indianapolis Center
11:21 40.0017 -81.9675 267° West 163 188 6,100  Level Indianapolis Center
11:22 39.9989 -82.0122 265° West 165 190 6,100  Level Indianapolis Center
11:22 39.9994 -82.0283 273° West 167 192 6,100  Level Indianapolis Center
11:23 39.9992 -82.0775 270° West 168 193 6,100  Level Indianapolis Center
11:23 39.9964 -82.0886 252° West 166 191 6,100  Level Indianapolis Center
11:24 39.9956 -82.1369 269° West 168 193 6,100  Level Indianapolis Center
11:24 39.9956 -82.1506 270° West 168 193 6,100  Level Indianapolis Center
11:25 39.9942 -82.1964 268° West 167 192 6,100  Level Indianapolis Center
11:25 39.9933 -82.2114 266° West 168 193 6,100  Level Indianapolis Center
11:26 39.9903 -82.2586 265° West 166 191 6,100  Level Indianapolis Center
11:26 39.9911 -82.2725 274° West 167 192 6,100  Level Indianapolis Center
11:27 39.9886 -82.3183 266° West 167 192 6,100  Level Indianapolis Center
11:27 39.9878 -82.3322 266° West 164 189 6,100  Level Indianapolis Center
11:28 39.9867 -82.3806 268° West 169 194 6,100  Level Indianapolis Center
11:28 39.9853 -82.3947 263° West 170 196 6,100  Level Indianapolis Center
11:29 39.9833 -82.4347 266° West 170 196 6,100  Level Indianapolis Center
11:29 39.9828 -82.4561 268° West 170 196 6,100  Level Indianapolis Center
11:30 39.9814 -82.4969 267° West 169 194 6,100  Level Indianapolis Center
11:30 39.9806 -82.5181 267° West 170 196 6,100  Level Indianapolis Center
11:31 39.9794 -82.5622 268° West 170 196 6,100  Level Indianapolis Center
11:31 39.9781 -82.5803 264° West 169 194 6,100  Level Indianapolis Center
11:32 39.9756 -82.6242 266° West 170 196 6,100  Level Indianapolis Center
11:32 39.9753 -82.6417 269° West 169 194 6,100  Level Indianapolis Center
11:33 39.9736 -82.6839 267° West 168 193 6,100  Level Indianapolis Center
11:33 39.9731 -82.7036 268° West 169 194 6,100  Level Indianapolis Center
11:34 39.9717 -82.7461 268° West 167 192 6,100  Level Indianapolis Center
11:34 39.9700 -82.7742 266° West 167 192 6,100  Level Indianapolis Center
11:35 39.9678 -82.8056 265° West 167 192 6,100  Level Indianapolis Center
11:35 39.9678 -82.8344 270° West 166 191 6,100  Level Indianapolis Center
11:36 39.9658 -82.8653 265° West 166 191 6,100  Level Indianapolis Center
11:36 39.9644 -82.8956 267° West 167 192 6,100  Level Indianapolis Center
11:37 39.9636 -82.9275 268° West 167 192 6,100  Level Indianapolis Center
11:37 39.9622 -82.9569 266° West 169 194 6,100  Level Indianapolis Center
11:38 39.9592 -82.9922 264° West 168 193 6,100  Level Indianapolis Center
11:38 39.9592 -83.0175 270° West 167 192 6,100 -120 Level Indianapolis Center
11:39 39.9572 -83.0519 266° West 167 192 6,000  Descending Indianapolis Center
11:39 39.9564 -83.0786 268° West 167 192 6,100  Climbing Indianapolis Center
11:40 39.9550 -83.1169 267° West 169 194 6,000  Descending Indianapolis Center
11:40 39.9533 -83.1392 264° West 167 192 6,100  Climbing Indianapolis Center
11:41 39.9503 -83.1817 265° West 168 193 6,000  Descending Indianapolis Center
11:41 39.9508 -83.2003 272° West 168 193 6,100  Climbing Indianapolis Center
11:42 39.9481 -83.2439 265° West 167 192 6,000  Descending Indianapolis Center
11:42 39.9481 -83.2606 270° West 167 192 6,100  Climbing Indianapolis Center
11:43 39.9461 -83.3036 267° West 165 190 6,000  Descending Indianapolis Center
11:43 39.9456 -83.3200 267° West 165 190 6,100  Climbing Indianapolis Center
11:44 39.9417 -83.3628 263° West 164 189 6,000  Descending Indianapolis Center
11:44 39.9422 -83.3803 272° West 165 190 6,100  Climbing Indianapolis Center
11:45 39.9397 -83.4225 266° West 165 190 6,000  Descending Indianapolis Center
11:45 39.9386 -83.4497 267° West 165 190 6,100  Climbing Indianapolis Center
11:46 39.9372 -83.4847 267° West 164 189 6,000  Descending Indianapolis Center
11:46 39.9358 -83.5083 266° West 164 189 6,100  Climbing Indianapolis Center
11:47 39.9328 -83.5442 264° West 163 188 6,000 -120 Descending Indianapolis Center
11:47 39.9331 -83.5669 271° West 163 188 6,000  Level Indianapolis Center
11:48 39.9314 -83.6269 268° West 164 189 6,000 60 Level Indianapolis Center
11:49 39.9283 -83.6633 264° West 166 191 6,100  Climbing Indianapolis Center
11:49 39.9292 -83.6872 273° West 166 191 6,000  Descending Indianapolis Center
11:50 39.9281 -83.7231 268° West 167 192 6,100  Climbing Indianapolis Center
11:50 39.9292 -83.7472 273° West 165 190 6,000 -420 Descending Indianapolis Center
11:51 39.9297 -83.7858 271° West 159 183 5,700 -600 Descending Indianapolis Center
11:51 39.9292 -83.8044 268° West 161 185 5,400 -720 Descending Indianapolis Center
11:52 39.9278 -83.8400 267° West 154 177 5,000 -720 Descending Indianapolis Center
11:53 39.9292 -83.8606 275° West 157 181 4,700 -720 Descending Indianapolis Center
11:53 39.9297 -83.8972 271° West 152 175 4,300 -720 Descending Indianapolis Center
11:54 39.9292 -83.9153 268° West 154 177 4,000 -240 Descending Indianapolis Center
11:54 39.9300 -83.9464 272° West 133 153 4,100 -240 Climbing Indianapolis Center
11:55 39.9306 -83.9644 272° West 144 166 3,800 -600 Descending Indianapolis Center
11:55 39.9325 -83.9958 275° West 142 163 3,500 -840 Descending Indianapolis Center
11:56 39.9378 -84.0231 284° West 140 161 3,000 -360 Descending Indianapolis Center
11:56 39.9439 -84.0408 294° West 132 152 3,200  Climbing Indianapolis Center
11:57 39.9514 -84.0672 290° West 135 155 3,000 -120 Descending Indianapolis Center
11:57 39.9531 -84.0828 278° West 118 136 3,100  Climbing Indianapolis Center
11:58 39.9536 -84.1078 272° West 125 144 3,000  Descending Indianapolis Center
11:58 39.9458 -84.1228 236° Southwest 110 127 3,100 -540 Climbing Indianapolis Center
11:59 39.9350 -84.1419 234° Southwest 117 135 2,500 -840 Descending Indianapolis Center
11:59 39.9264 -84.1556 230° Southwest 111 128 2,300 -600 Descending Indianapolis Center
12:00 39.9197 -84.1675 234° Southwest 113 130 1,900 -720 Descending Indianapolis Center
12:00 39.9117 -84.1836 237° Southwest 94 108 1,600 -900 Descending Indianapolis Center
12:02 39.9000 -84.2167 267° West  Level FlightAware Approximate
12:09 39.9022 -84.2194 267° West  Level Estimated